Time;durP1;ratioP1;P1;durP2;ratioP2;P2;SDS_P1;SDS_P2;PMS_P1;PMS_P2;Temp;Humidity;BMP_temperature;BMP_pressure;BME280_temperature;BME280_humidity;BME280_pressure;Samples;Min_cycle;Max_cycle;Signal;HPM_P1;HPM_P2
2022/01/04 00:00:07;;;;;;;2.33;1.17;;;;;;;8.56;78.70;99466.97;5027384;28;20096;-82
2022/01/04 00:02:38;;;;;;;2.95;0.88;;;;;;;8.66;78.37;99456.34;5015581;28;20042;-82
2022/01/04 00:05:04;;;;;;;2.50;0.50;;;;;;;8.73;78.40;99458.84;5010772;28;20097;-82
2022/01/04 00:07:30;;;;;;;0.85;0.32;;;;;;;8.74;78.34;99450.03;5016561;28;20025;-81
2022/01/04 00:09:56;;;;;;;1.45;0.40;;;;;;;8.77;78.52;99444.72;5017452;28;20038;-82
2022/01/04 00:15:06;;;;;;;2.10;0.55;;;;;;;8.76;78.58;99445.63;5015312;28;20038;-82
2022/01/04 00:17:32;;;;;;;1.52;0.30;;;;;;;8.80;78.32;99435.06;5018062;28;20059;-81
2022/01/04 00:19:57;;;;;;;3.78;0.68;;;;;;;8.79;78.38;99439.47;5018664;28;20500;-81
2022/01/04 00:22:23;;;;;;;2.13;0.60;;;;;;;8.81;78.42;99427.16;5017156;28;20040;-81
2022/01/04 00:24:48;;;;;;;1.58;0.45;;;;;;;8.77;78.30;99425.44;5018500;28;20077;-81
2022/01/04 00:27:13;;;;;;;1.92;0.75;;;;;;;8.73;78.83;99422.00;5025237;28;20053;-81
2022/01/04 00:29:39;;;;;;;2.42;0.47;;;;;;;8.66;78.92;99417.75;5017958;28;20038;-81
2022/01/04 00:32:05;;;;;;;3.55;0.80;;;;;;;8.64;79.48;99405.50;5018192;28;20026;-81
2022/01/04 00:34:30;;;;;;;1.48;0.40;;;;;;;8.59;79.62;99405.56;5017692;28;20484;-82
2022/01/04 00:36:55;;;;;;;1.88;0.60;;;;;;;8.54;79.99;99394.25;5015993;28;20037;-81
2022/01/04 00:39:21;;;;;;;1.92;0.52;;;;;;;8.53;79.74;99388.13;5017657;28;20076;-82
2022/01/04 00:41:46;;;;;;;2.33;0.68;;;;;;;8.50;80.55;99380.31;5017429;28;20105;-82
2022/01/04 00:44:11;;;;;;;2.65;0.60;;;;;;;8.49;80.61;99380.34;5017366;28;20567;-81
2022/01/04 00:46:37;;;;;;;4.63;0.90;;;;;;;8.45;81.31;99381.28;5015964;28;20057;-80
2022/01/04 00:49:11;;;;;;;3.17;1.00;;;;;;;8.45;81.39;99373.38;5016741;28;20536;-82
2022/01/04 00:51:41;;;;;;;2.65;0.68;;;;;;;8.45;81.74;99365.50;5015160;28;20484;-81
2022/01/04 00:54:08;;;;;;;2.17;0.50;;;;;;;8.51;81.63;99357.50;5018485;28;20033;-82
2022/01/04 00:56:34;;;;;;;3.08;0.77;;;;;;;8.52;81.24;99354.00;5018526;28;20054;-82
2022/01/04 00:58:59;;;;;;;4.22;0.70;;;;;;;8.52;81.76;99349.59;5014270;28;20052;-83
2022/01/04 01:01:25;;;;;;;1.40;0.70;;;;;;;8.57;81.29;99341.63;5018064;28;20481;-83
2022/01/04 01:03:51;;;;;;;1.48;0.63;;;;;;;8.58;81.46;99338.09;5016479;28;20074;-82
2022/01/04 01:06:17;;;;;;;2.78;0.57;;;;;;;8.61;81.47;99331.91;5017115;28;20042;-82
2022/01/04 01:08:43;;;;;;;2.83;0.60;;;;;;;8.62;81.70;99331.91;5016853;28;20065;-82
2022/01/04 01:11:09;;;;;;;3.22;0.80;;;;;;;8.65;81.26;99334.47;5018374;28;20041;-82
2022/01/04 01:13:35;;;;;;;3.80;1.00;;;;;;;8.68;81.14;99329.16;5017774;28;20037;-82
2022/01/04 01:16:00;;;;;;;2.45;0.73;;;;;;;8.73;80.87;99323.81;5017930;28;20107;-81
2022/01/04 01:18:26;;;;;;;2.65;0.75;;;;;;;8.74;81.17;99321.16;5017384;28;20084;-82
2022/01/04 01:20:51;;;;;;;2.10;0.80;;;;;;;8.77;81.02;99318.44;5016463;28;20037;-82
2022/01/04 01:23:18;;;;;;;4.72;0.82;;;;;;;8.78;81.02;99325.47;5018500;28;20108;-82
2022/01/04 01:25:44;;;;;;;2.30;1.08;;;;;;;8.77;81.33;99318.44;5017652;28;20030;-82
2022/01/04 01:28:09;;;;;;;3.17;0.90;;;;;;;8.80;80.80;99309.63;5017710;28;20040;-81
2022/01/04 01:30:38;;;;;;;3.05;0.85;;;;;;;8.85;80.68;99312.19;5017070;28;20393;-82
2022/01/04 01:33:04;;;;;;;3.65;0.88;;;;;;;8.85;80.97;99304.28;5026943;28;20050;-81
2022/01/04 01:35:30;;;;;;;3.22;0.70;;;;;;;8.88;80.99;99306.88;5022106;28;20057;-81
2022/01/04 01:37:57;;;;;;;3.83;1.42;;;;;;;8.84;80.65;99308.69;5020926;28;20042;-80
2022/01/04 01:40:22;;;;;;;2.60;0.73;;;;;;;8.88;80.52;99310.38;5029082;28;20073;-81
2022/01/04 01:42:48;;;;;;;2.42;1.00;;;;;;;8.89;80.61;99301.59;5020899;28;20045;-81
2022/01/04 01:45:16;;;;;;;3.35;1.08;;;;;;;8.88;80.41;99301.59;5020074;28;20037;-81
2022/01/04 01:47:43;;;;;;;2.60;0.80;;;;;;;8.89;80.99;99290.19;5019027;28;20083;-82
2022/01/04 01:50:11;;;;;;;2.28;0.75;;;;;;;8.94;80.36;99283.09;5018647;28;20042;-82
2022/01/04 01:52:37;;;;;;;2.58;0.80;;;;;;;8.97;80.26;99283.03;5020310;28;20042;-83
2022/01/04 01:55:03;;;;;;;1.98;0.75;;;;;;;8.94;80.46;99276.06;5020053;28;20052;-81
2022/01/04 01:57:28;;;;;;;6.75;1.33;;;;;;;8.96;80.26;99273.38;5021593;28;20061;-82
2022/01/04 01:59:54;;;;;;;3.30;1.00;;;;;;;8.96;80.22;99260.22;5021644;28;20459;-82
2022/01/04 02:02:19;;;;;;;4.47;1.05;;;;;;;9.01;80.83;99266.25;5020490;28;20544;-82
2022/01/04 02:04:44;;;;;;;4.85;1.05;;;;;;;9.03;80.88;99258.34;5020104;28;20040;-82
2022/01/04 02:07:11;;;;;;;4.70;1.10;;;;;;;9.01;81.13;99255.72;5030232;28;20052;-81
2022/01/04 02:09:40;;;;;;;3.08;1.02;;;;;;;9.02;81.21;99256.63;5029518;28;20397;-81
2022/01/04 02:12:08;;;;;;;5.50;1.00;;;;;;;9.07;81.07;99247.72;5021782;28;20042;-81
2022/01/04 02:14:33;;;;;;;3.30;1.00;;;;;;;9.09;80.77;99256.47;5021467;28;20061;-82
2022/01/04 02:16:58;;;;;;;3.90;0.90;;;;;;;9.11;80.75;99249.38;5026982;28;20116;-82
2022/01/04 02:19:24;;;;;;;3.90;0.90;;;;;;;9.10;80.77;99246.81;5027400;28;20489;-82
2022/01/04 02:21:50;;;;;;;3.28;1.00;;;;;;;9.06;81.64;99237.22;5019923;28;20377;-82
2022/01/04 02:24:15;;;;;;;1.60;0.60;;;;;;;9.10;81.95;99231.88;5019322;28;20095;-83
2022/01/04 02:26:41;;;;;;;3.05;0.75;;;;;;;9.12;81.49;99224.81;5019204;28;20044;-83
2022/01/04 02:29:07;;;;;;;2.35;0.75;;;;;;;9.18;81.48;99216.78;5019842;28;20065;-82
2022/01/04 02:31:34;;;;;;;3.38;0.70;;;;;;;9.14;82.50;99215.13;5019415;28;20033;-83
2022/01/04 02:33:59;;;;;;;1.98;1.20;;;;;;;9.20;82.45;99214.13;5018561;28;20030;-82
2022/01/04 02:36:24;;;;;;;2.25;0.70;;;;;;;9.12;83.62;99211.66;5018919;28;20556;-82
2022/01/04 02:38:53;;;;;;;2.75;0.90;;;;;;;9.17;84.07;99206.31;5018821;28;20077;-82
2022/01/04 02:41:19;;;;;;;4.05;0.70;;;;;;;9.14;84.57;99212.50;5019026;28;20489;-82
2022/01/04 02:43:44;;;;;;;2.72;0.70;;;;;;;9.13;85.88;99205.47;5017529;28;20101;-78
2022/01/04 02:46:10;;;;;;;1.92;0.68;;;;;;;9.08;86.69;99201.22;5017116;28;20492;-78
2022/01/04 02:48:43;;;;;;;2.55;0.70;;;;;;;9.02;87.30;99196.97;5013090;28;20488;-78
2022/01/04 02:51:08;;;;;;;2.22;0.50;;;;;;;9.01;87.23;99184.69;5009425;28;20101;-78
2022/01/04 02:53:34;;;;;;;2.42;0.82;;;;;;;8.93;88.15;99187.50;5015807;28;20120;-78
2022/01/04 02:55:59;;;;;;;1.90;0.70;;;;;;;8.96;87.84;99183.91;5016973;28;20411;-78
2022/01/04 02:58:24;;;;;;;3.97;0.80;;;;;;;8.94;87.92;99181.31;5020947;28;20044;-78
2022/01/04 03:00:50;;;;;;;3.50;0.80;;;;;;;8.98;87.74;99179.47;5017038;28;20046;-78
2022/01/04 03:03:15;;;;;;;2.20;0.63;;;;;;;8.99;87.65;99178.59;5015872;28;20026;-78
2022/01/04 03:05:40;;;;;;;2.78;0.68;;;;;;;8.98;87.65;99174.22;5015347;28;20033;-78
2022/01/04 03:08:05;;;;;;;4.18;0.60;;;;;;;8.93;87.96;99171.72;5015551;28;20037;-78
2022/01/04 03:10:31;;;;;;;2.80;0.57;;;;;;;8.95;87.98;99169.88;5015567;28;20038;-78
2022/01/04 03:12:57;;;;;;;2.97;0.50;;;;;;;8.96;87.76;99170.75;5017078;28;20030;-78
2022/01/04 03:15:22;;;;;;;2.70;0.63;;;;;;;9.02;87.21;99170.63;5019787;28;20064;-78
2022/01/04 03:17:47;;;;;;;2.97;0.80;;;;;;;8.98;87.40;99158.44;5020139;28;20128;-78
2022/01/04 03:20:13;;;;;;;5.10;1.40;;;;;;;9.04;86.40;99163.59;5015675;28;20034;-78
2022/01/04 03:22:39;;;;;;;3.83;1.20;;;;;;;9.08;86.24;99159.97;5015440;28;20041;-78
2022/01/04 03:25:04;;;;;;;5.20;1.88;;;;;;;9.12;85.95;99160.78;5015137;28;20045;-78
2022/01/04 03:27:29;;;;;;;4.65;1.85;;;;;;;9.13;85.16;99146.72;5015654;28;20542;-78
2022/01/04 03:29:55;;;;;;;4.78;2.20;;;;;;;9.15;85.34;99131.75;5015511;28;20071;-78
2022/01/04 03:32:20;;;;;;;7.20;3.03;;;;;;;9.21;84.27;99128.97;5014789;28;20038;-78
2022/01/04 03:34:46;;;;;;;5.53;2.05;;;;;;;9.20;84.23;99122.84;5014719;28;20034;-78
2022/01/04 03:37:11;;;;;;;4.53;1.50;;;;;;;9.25;83.89;99128.03;5012845;28;20037;-78
2022/01/04 03:39:36;;;;;;;4.13;0.85;;;;;;;9.29;83.67;99126.16;5014894;28;20068;-78
2022/01/04 03:42:03;;;;;;;2.28;0.73;;;;;;;9.29;83.64;99128.81;5015024;28;20034;-78
2022/01/04 03:44:28;;;;;;;2.95;0.70;;;;;;;9.31;83.31;99137.53;5014731;28;20046;-79
2022/01/04 03:46:56;;;;;;;2.10;0.60;;;;;;;9.33;83.51;99130.47;5014307;28;20048;-79
2022/01/04 03:49:22;;;;;;;2.05;0.60;;;;;;;9.35;83.31;99121.63;5011189;28;20109;-78
2022/01/04 03:51:48;;;;;;;0.95;0.52;;;;;;;9.31;83.17;99121.75;5014726;28;20061;-79
2022/01/04 03:54:13;;;;;;;1.92;0.60;;;;;;;9.29;83.48;99113.00;5015411;28;20424;-79
2022/01/04 03:56:39;;;;;;;1.98;0.60;;;;;;;9.24;83.90;99106.97;5013554;28;20164;-80
2022/01/04 03:59:05;;;;;;;1.30;0.45;;;;;;;9.22;84.05;99107.00;5014824;28;20478;-80
2022/01/04 04:01:30;;;;;;;1.90;0.52;;;;;;;9.21;84.05;99102.66;5015054;28;20029;-79
2022/01/04 04:03:56;;;;;;;2.47;0.55;;;;;;;9.14;84.24;99101.94;5015482;28;20345;-80
2022/01/04 04:06:21;;;;;;;2.67;0.68;;;;;;;9.06;85.03;99098.59;5014968;28;20034;-80
2022/01/04 04:08:46;;;;;;;1.75;0.57;;;;;;;9.08;84.68;99088.91;5014203;28;20554;-80
2022/01/04 04:11:12;;;;;;;5.70;2.50;;;;;;;9.12;84.50;99087.94;5014330;28;20037;-79
2022/01/04 04:13:37;;;;;;;2.53;0.65;;;;;;;9.11;84.33;99083.56;5015042;28;20070;-79
2022/01/04 04:16:03;;;;;;;1.98;0.60;;;;;;;9.09;85.21;99077.50;5014499;28;20045;-79
2022/01/04 04:18:28;;;;;;;2.33;0.50;;;;;;;9.13;84.49;99076.50;5019677;28;20044;-79
2022/01/04 04:20:54;;;;;;;3.15;0.75;;;;;;;9.12;84.74;99074.78;5019916;28;20037;-77
2022/01/04 04:23:19;;;;;;;4.82;0.88;;;;;;;9.13;84.28;99063.34;5008227;28;20412;-77
2022/01/04 04:25:45;;;;;;;2.15;0.90;;;;;;;9.14;84.50;99059.84;5012328;28;20114;-77
2022/01/04 04:28:10;;;;;;;1.38;0.60;;;;;;;9.14;84.41;99053.69;5011021;28;20056;-77
2022/01/04 04:30:36;;;;;;;3.78;1.20;;;;;;;9.09;84.20;99051.19;5012278;28;20053;-77
2022/01/04 04:33:02;;;;;;;2.17;0.70;;;;;;;9.10;84.46;99042.38;5010947;28;20037;-77
2022/01/04 04:35:29;;;;;;;2.47;0.50;;;;;;;9.09;84.12;99040.66;5011771;28;20041;-77
2022/01/04 04:37:56;;;;;;;1.90;0.40;;;;;;;9.08;84.86;99038.03;5012411;28;20046;-77
2022/01/04 04:40:22;;;;;;;3.85;0.55;;;;;;;9.03;84.89;99032.88;5011782;28;20022;-77
2022/01/04 04:42:47;;;;;;;2.17;0.80;;;;;;;9.03;84.69;99029.38;5009001;28;20515;-77
2022/01/04 04:45:12;;;;;;;3.47;1.10;;;;;;;8.98;85.45;99037.38;5010952;28;20500;-77
2022/01/04 04:47:38;;;;;;;2.85;0.90;;;;;;;9.01;84.98;99024.16;5010789;28;20508;-77
2022/01/04 04:50:04;;;;;;;2.75;1.00;;;;;;;9.02;84.88;99023.28;5009178;28;20524;-77
2022/01/04 04:52:29;;;;;;;2.50;0.70;;;;;;;8.97;84.94;99025.16;5010031;28;20532;-77
2022/01/04 04:54:56;;;;;;;1.42;0.50;;;;;;;8.99;85.13;99026.84;5010583;28;20057;-77
2022/01/04 04:57:22;;;;;;;2.28;0.60;;;;;;;9.06;85.07;99022.28;5009959;28;20069;-77
2022/01/04 04:59:47;;;;;;;1.02;0.50;;;;;;;9.03;84.41;99026.75;5011866;28;20029;-77
2022/01/04 05:02:12;;;;;;;2.03;0.80;;;;;;;9.05;84.69;99028.44;4994109;28;20397;-76
2022/01/04 05:04:38;;;;;;;2.58;1.00;;;;;;;9.04;84.42;99021.47;5009826;28;20522;-76
2022/01/04 05:07:04;;;;;;;6.35;3.42;;;;;;;9.06;84.60;99009.13;5011227;28;20468;-77
2022/01/04 05:09:30;;;;;;;1.83;0.80;;;;;;;8.97;84.25;98996.19;5009953;28;20373;-77
2022/01/04 05:11:55;;;;;;;1.65;0.60;;;;;;;9.00;84.30;99004.00;5011524;28;20099;-76
2022/01/04 05:14:21;;;;;;;2.17;0.60;;;;;;;8.97;83.94;98996.19;5011402;28;20233;-76
2022/01/04 05:16:46;;;;;;;1.25;0.28;;;;;;;8.92;84.45;98990.19;5011334;28;20496;-76
2022/01/04 05:19:12;;;;;;;1.33;0.35;;;;;;;8.95;84.40;98990.09;5011520;28;20038;-76
2022/01/04 05:21:37;;;;;;;2.05;0.40;;;;;;;8.96;84.54;98994.44;5011356;28;20536;-76
2022/01/04 05:24:03;;;;;;;1.83;0.50;;;;;;;8.91;84.74;98986.69;5011451;28;20034;-77
2022/01/04 05:26:28;;;;;;;2.13;0.40;;;;;;;8.87;85.09;98977.13;5008952;28;20048;-76
2022/01/04 05:28:54;;;;;;;6.20;3.45;;;;;;;8.84;85.30;98976.34;5008892;28;20042;-76
2022/01/04 05:31:19;;;;;;;2.22;0.55;;;;;;;8.80;85.30;98969.41;5008671;28;20092;-76
2022/01/04 05:33:44;;;;;;;2.38;0.50;;;;;;;8.80;84.94;98966.78;5008159;28;20041;-75
2022/01/04 05:36:10;;;;;;;1.23;0.40;;;;;;;8.79;85.43;98973.81;5008937;28;20048;-76
2022/01/04 05:38:35;;;;;;;1.52;0.50;;;;;;;8.80;84.96;98964.16;5010125;28;20034;-76
2022/01/04 05:41:00;;;;;;;2.28;0.40;;;;;;;8.83;84.78;98958.81;5006121;28;20045;-75
2022/01/04 05:43:26;;;;;;;0.95;0.40;;;;;;;8.84;84.63;98958.78;5011466;28;20042;-76
2022/01/04 05:45:51;;;;;;;1.83;0.28;;;;;;;8.80;84.68;98949.22;5010911;28;20073;-75
2022/01/04 05:48:21;;;;;;;0.82;0.30;;;;;;;8.78;85.03;98948.44;5011291;28;20037;-75
2022/01/04 05:50:47;;;;;;;1.63;0.30;;;;;;;8.82;84.73;98947.44;5009195;28;20041;-76
2022/01/04 05:53:13;;;;;;;3.20;0.40;;;;;;;8.85;84.43;98946.50;5008185;28;20034;-76
2022/01/04 05:55:38;;;;;;;4.95;2.00;;;;;;;8.81;84.50;98940.47;5010226;28;20037;-77
2022/01/04 05:58:04;;;;;;;2.08;0.70;;;;;;;8.81;84.67;98929.06;5010236;28;20061;-76
2022/01/04 06:00:29;;;;;;;1.08;0.40;;;;;;;8.86;84.72;98932.47;5010271;28;20062;-77
2022/01/04 06:02:55;;;;;;;1.23;0.20;;;;;;;8.87;84.56;98928.91;5009006;28;20042;-77
2022/01/04 06:05:21;;;;;;;0.82;0.30;;;;;;;8.87;84.39;98924.50;5009397;28;20084;-77
2022/01/04 06:07:46;;;;;;;11.73;7.22;;;;;;;8.80;84.43;98927.31;5011202;28;20136;-76
2022/01/04 06:10:13;;;;;;;4.88;2.38;;;;;;;8.81;84.37;98923.81;5009673;28;20034;-77
2022/01/04 06:15:07;;;;;;;8.30;4.20;;;;;;;8.80;85.15;98904.50;5010755;28;20511;-77
2022/01/04 06:17:34;;;;;;;3.80;2.08;;;;;;;8.84;84.55;98895.66;5004280;28;20033;-77
2022/01/04 06:20:03;;;;;;;4.28;1.48;;;;;;;8.89;84.67;98890.28;5011594;28;20377;-77
2022/01/04 06:22:28;;;;;;;2.30;0.70;;;;;;;8.90;83.81;98895.50;5012109;28;20034;-77
2022/01/04 06:24:55;;;;;;;1.40;0.68;;;;;;;8.92;84.16;98890.19;5013815;28;20049;-77
2022/01/04 06:27:21;;;;;;;1.65;0.50;;;;;;;8.90;83.45;98892.00;5014352;28;20041;-77
2022/01/04 06:29:47;;;;;;;2.70;0.70;;;;;;;8.86;84.39;98883.34;5014646;28;20037;-76
2022/01/04 06:32:13;;;;;;;1.27;0.40;;;;;;;8.78;84.32;98873.00;5013044;28;20041;-77
2022/01/04 06:34:40;;;;;;;1.48;0.40;;;;;;;8.74;84.45;98865.22;5010744;28;20046;-77
2022/01/04 06:37:07;;;;;;;1.00;0.52;;;;;;;8.77;84.46;98871.25;5013112;28;20033;-76
2022/01/04 06:39:33;;;;;;;1.05;0.40;;;;;;;8.78;84.36;98865.13;5013850;28;20034;-77
2022/01/04 06:41:59;;;;;;;1.48;0.60;;;;;;;8.73;84.18;98858.25;5011386;28;20029;-77
2022/01/04 06:44:24;;;;;;;1.77;0.80;;;;;;;8.62;84.51;98850.63;5013882;28;20500;-76
2022/01/04 06:46:51;;;;;;;1.40;0.70;;;;;;;8.49;85.20;98843.94;5014239;28;20030;-77
2022/01/04 06:49:18;;;;;;;2.38;0.40;;;;;;;8.40;85.29;98825.75;5014167;28;20441;-77
2022/01/04 06:51:45;;;;;;;1.30;0.55;;;;;;;8.39;85.96;98826.63;5013773;28;20026;-76
2022/01/04 06:54:12;;;;;;;1.98;0.70;;;;;;;8.32;85.73;98824.13;5014137;28;20049;-76
2022/01/04 06:56:38;;;;;;;3.58;1.05;;;;;;;8.31;85.26;98827.69;5009952;28;20040;-76
2022/01/04 06:59:04;;;;;;;2.58;1.17;;;;;;;8.28;86.15;98817.25;5014039;28;20073;-76
2022/01/04 07:01:30;;;;;;;4.53;1.15;;;;;;;8.30;86.19;98806.69;5013512;28;20033;-77
2022/01/04 07:03:55;;;;;;;3.88;1.90;;;;;;;8.34;86.19;98796.06;5013521;28;20036;-77
2022/01/04 07:06:21;;;;;;;4.85;2.28;;;;;;;8.41;86.01;98809.97;5012172;28;20026;-77
2022/01/04 07:08:47;;;;;;;4.60;2.03;;;;;;;8.45;86.29;98805.47;5013679;28;20513;-76
2022/01/04 07:11:13;;;;;;;3.70;1.90;;;;;;;8.51;85.62;98803.56;5013475;28;20485;-77
2022/01/04 07:13:39;;;;;;;3.25;1.40;;;;;;;8.52;85.49;98796.53;5013775;28;20048;-76
2022/01/04 07:16:04;;;;;;;2.17;1.05;;;;;;;8.45;85.67;98792.34;5013509;28;20116;-76
2022/01/04 07:18:29;;;;;;;2.70;1.20;;;;;;;8.41;85.72;98793.28;5013552;28;20454;-76
2022/01/04 07:20:55;;;;;;;1.63;0.80;;;;;;;8.43;85.97;98791.50;4995709;28;20084;-77
2022/01/04 07:23:22;;;;;;;2.03;0.80;;;;;;;8.44;85.85;98790.63;5013508;28;20073;-76
2022/01/04 07:25:47;;;;;;;1.30;0.60;;;;;;;8.43;85.21;98789.72;5013309;28;20034;-76
2022/01/04 07:28:12;;;;;;;1.30;0.60;;;;;;;8.48;85.49;98789.63;5013451;28;20095;-77
2022/01/04 07:30:38;;;;;;;1.15;0.52;;;;;;;8.51;84.89;98792.16;5012243;28;20409;-77
2022/01/04 07:33:03;;;;;;;2.40;0.60;;;;;;;8.52;85.05;98779.00;5013215;28;20045;-76
2022/01/04 07:35:28;;;;;;;1.02;0.47;;;;;;;8.52;84.92;98783.41;5011668;28;20048;-77
2022/01/04 07:37:54;;;;;;;1.55;0.50;;;;;;;8.46;84.61;98773.00;5028370;28;20030;-76
2022/01/04 07:40:20;;;;;;;1.83;0.30;;;;;;;8.48;84.79;98776.47;5013111;28;20499;-77
2022/01/04 07:42:46;;;;;;;1.58;0.75;;;;;;;8.44;85.12;98772.22;5012950;28;20045;-77
2022/01/04 07:45:11;;;;;;;3.05;1.00;;;;;;;8.42;85.09;98772.25;5012872;28;20107;-76
2022/01/04 07:47:37;;;;;;;1.17;0.50;;;;;;;8.43;85.63;98767.84;5013010;28;20041;-77
2022/01/04 07:50:04;;;;;;;1.48;0.65;;;;;;;8.48;85.72;98768.59;5011711;28;20037;-77
2022/01/04 07:52:29;;;;;;;2.13;0.88;;;;;;;8.39;84.60;98763.53;5012747;28;20038;-76
2022/01/04 07:54:54;;;;;;;1.83;0.70;;;;;;;8.40;85.42;98760.03;5011503;28;20042;-76
2022/01/04 07:57:20;;;;;;;2.95;1.13;;;;;;;8.44;86.00;98757.31;5012895;28;20408;-77
2022/01/04 07:59:46;;;;;;;2.47;1.30;;;;;;;8.46;85.53;98755.50;5011626;28;20417;-76
2022/01/04 08:02:11;;;;;;;1.80;0.90;;;;;;;8.50;86.18;98757.13;5010143;28;20034;-76
2022/01/04 08:04:37;;;;;;;1.98;1.00;;;;;;;8.53;86.16;98753.56;5010955;28;20493;-76
2022/01/04 08:07:02;;;;;;;2.63;0.98;;;;;;;8.54;85.96;98757.91;5012545;28;20049;-76
2022/01/04 08:09:29;;;;;;;1.90;0.90;;;;;;;8.58;85.77;98750.81;5012371;28;20051;-76
2022/01/04 08:11:54;;;;;;;3.13;0.95;;;;;;;8.52;85.93;98738.69;5008299;28;20069;-76
2022/01/04 08:14:19;;;;;;;2.20;1.25;;;;;;;8.51;86.02;98744.84;5010875;28;20167;-76
2022/01/04 08:16:45;;;;;;;2.30;0.98;;;;;;;8.49;86.06;98734.38;5010639;28;20122;-76
2022/01/04 08:19:10;;;;;;;2.40;0.90;;;;;;;8.53;85.76;98735.16;5012275;28;20507;-76
2022/01/04 08:21:35;;;;;;;2.28;1.10;;;;;;;8.56;85.70;98730.66;5011997;28;20037;-76
2022/01/04 08:24:01;;;;;;;3.15;1.38;;;;;;;8.63;85.84;98731.38;5010634;28;20057;-77
2022/01/04 08:26:28;;;;;;;3.15;1.17;;;;;;;8.70;85.89;98726.81;5009544;28;20404;-76
2022/01/04 08:28:54;;;;;;;2.63;1.10;;;;;;;8.71;85.27;98718.88;5010787;28;20034;-76
2022/01/04 08:31:19;;;;;;;2.30;0.98;;;;;;;8.71;85.22;98716.25;5011925;28;20095;-76
2022/01/04 08:33:44;;;;;;;2.58;1.30;;;;;;;8.69;85.38;98709.31;5012065;28;20080;-76
2022/01/04 08:36:10;;;;;;;2.17;1.02;;;;;;;8.64;85.97;98714.69;5011842;28;20034;-76
2022/01/04 08:38:36;;;;;;;1.73;0.80;;;;;;;8.65;85.70;98713.78;5011221;28;20041;-76
2022/01/04 08:41:01;;;;;;;2.63;1.08;;;;;;;8.70;85.64;98708.41;5010672;28;20132;-77
2022/01/04 08:43:27;;;;;;;2.67;1.23;;;;;;;8.76;85.12;98714.34;5026937;28;20037;-76
2022/01/04 08:45:53;;;;;;;1.90;0.82;;;;;;;8.84;85.39;98708.03;5011662;28;20029;-76
2022/01/04 08:48:18;;;;;;;2.85;1.40;;;;;;;8.88;84.98;98701.75;5011328;28;20568;-76
2022/01/04 08:50:44;;;;;;;4.05;2.00;;;;;;;8.91;85.35;98701.69;5007844;28;20091;-77
2022/01/04 08:53:11;;;;;;;3.15;1.58;;;;;;;8.93;84.86;98684.97;5011763;28;20038;-77
2022/01/04 08:55:38;;;;;;;3.45;1.60;;;;;;;8.96;84.75;98691.88;5011392;28;20064;-77
2022/01/04 08:58:04;;;;;;;2.80;1.40;;;;;;;9.03;84.90;98693.41;5011787;28;20042;-77
2022/01/04 09:00:29;;;;;;;3.95;1.80;;;;;;;9.06;84.52;98700.38;5010409;28;20103;-77
2022/01/04 09:02:54;;;;;;;3.03;1.17;;;;;;;9.07;84.46;98694.22;5011514;28;20053;-77
2022/01/04 09:05:20;;;;;;;3.58;1.23;;;;;;;9.14;84.34;98691.34;5010153;28;20046;-76
2022/01/04 09:07:45;;;;;;;1.60;0.80;;;;;;;9.25;83.51;98687.50;5011725;28;20036;-76
2022/01/04 09:10:10;;;;;;;2.17;0.90;;;;;;;9.24;84.35;98683.16;5011639;28;20577;-76
2022/01/04 09:12:49;;;;;;;3.63;1.08;;;;;;;9.28;84.02;98682.19;5011478;28;20037;-77
2022/01/04 09:15:33;;;;;;;3.33;0.90;;;;;;;9.33;84.24;98680.28;5010166;28;20562;-77
2022/01/04 09:20:47;;;;;;;2.63;1.13;;;;;;;9.42;83.50;98667.66;5011557;28;20050;-76
2022/01/04 09:23:18;;;;;;;2.60;1.00;;;;;;;9.42;83.67;98662.41;5011561;28;20029;-76
2022/01/04 09:25:48;;;;;;;2.60;0.93;;;;;;;9.41;83.13;98654.56;5009527;28;20037;-76
2022/01/04 09:28:14;;;;;;;2.75;1.10;;;;;;;9.43;83.14;98656.25;5011231;28;20098;-76
2022/01/04 09:30:41;;;;;;;3.95;2.10;;;;;;;9.43;83.26;98648.34;5011313;28;20068;-76
2022/01/04 09:33:06;;;;;;;4.55;2.15;;;;;;;9.41;83.24;98641.41;5011215;28;20476;-76
2022/01/04 09:35:33;;;;;;;2.83;1.35;;;;;;;9.41;83.68;98636.13;5011136;28;20052;-77
2022/01/04 09:37:58;;;;;;;2.13;1.10;;;;;;;9.41;83.68;98631.72;5011411;28;20057;-77
2022/01/04 09:40:24;;;;;;;2.83;1.00;;;;;;;9.50;83.54;98621.81;5011208;28;20521;-77
2022/01/04 09:42:50;;;;;;;2.22;1.05;;;;;;;9.50;83.12;98622.66;5010944;28;20088;-76
2022/01/04 09:45:15;;;;;;;1.80;0.80;;;;;;;9.57;83.08;98615.44;5011104;28;20118;-77
2022/01/04 09:47:41;;;;;;;1.70;0.80;;;;;;;9.64;83.22;98606.41;5011093;28;20053;-77
2022/01/04 09:50:10;;;;;;;2.05;1.05;;;;;;;9.62;82.57;98602.97;5011282;28;20021;-77
2022/01/04 09:52:38;;;;;;;2.40;0.80;;;;;;;9.64;82.84;98596.75;5011106;28;20049;-77
2022/01/04 09:55:04;;;;;;;2.30;1.02;;;;;;;9.68;83.14;98589.59;5013767;28;20077;-77
2022/01/04 09:57:29;;;;;;;2.47;0.80;;;;;;;9.75;82.90;98582.34;5013810;28;20064;-77
2022/01/04 09:59:54;;;;;;;1.75;0.77;;;;;;;9.89;82.78;98574.81;5022137;28;20041;-77
2022/01/04 10:02:21;;;;;;;2.03;0.82;;;;;;;9.94;82.10;98566.78;5014875;28;20041;-77
2022/01/04 10:04:47;;;;;;;1.65;0.80;;;;;;;9.93;82.15;98565.91;5014758;28;20072;-77
2022/01/04 10:07:13;;;;;;;2.28;0.98;;;;;;;9.79;82.38;98563.75;5014622;28;20052;-76
2022/01/04 10:09:45;;;;;;;3.53;0.93;;;;;;;9.76;83.23;98555.94;5014274;28;20113;-77
2022/01/04 10:12:11;;;;;;;;;;;;;;;9.76;84.04;98548.03;5015054;28;20038;-76
2022/01/04 10:14:41;;;;;;;3.05;1.60;;;;;;;9.91;83.18;98546.66;5014152;28;19921;-77
2022/01/04 10:17:14;;;;;;;3.90;1.80;;;;;;;10.00;83.04;98538.41;5014689;28;20042;-76
2022/01/04 10:19:48;;;;;;;3.15;1.60;;;;;;;10.04;81.92;98532.13;5014665;28;20042;-77
2022/01/04 10:22:16;;;;;;;4.88;2.00;;;;;;;10.00;82.57;98530.50;5010128;28;20448;-77
2022/01/04 10:24:45;;;;;;;3.70;1.92;;;;;;;10.01;82.48;98526.13;5014379;28;20096;-77
2022/01/04 10:27:27;;;;;;;4.43;2.10;;;;;;;10.00;82.42;98530.50;5013107;28;20492;-77
2022/01/04 10:30:07;;;;;;;;;;;;;;;9.83;82.71;98532.91;5014908;28;20073;-77
2022/01/04 10:33:02;;;;;;;2.80;1.40;;;;;;;9.80;82.72;98522.47;5011004;28;19928;-76
2022/01/04 10:35:47;;;;;;;3.20;1.65;;;;;;;9.86;83.70;98517.84;5021729;28;20046;-76
2022/01/04 10:38:36;;;;;;;3.83;1.75;;;;;;;9.93;82.91;98501.78;5028338;28;20121;-76
2022/01/04 10:41:09;;;;;;;4.53;2.42;;;;;;;9.85;83.56;98507.34;5011566;28;20037;-76
2022/01/04 10:43:48;;;;;;;6.28;4.00;;;;;;;9.84;83.21;98500.34;5014885;28;20042;-77
2022/01/04 10:46:18;;;;;;;3.90;2.38;;;;;;;9.88;83.24;98504.63;5021663;28;20038;-76
2022/01/04 10:48:46;;;;;;;4.22;2.70;;;;;;;9.85;84.30;98500.31;5014529;28;20041;-76
2022/01/04 10:51:30;;;;;;;3.42;1.90;;;;;;;9.87;83.73;98500.25;5013827;28;20057;-76
2022/01/04 10:54:00;;;;;;;3.45;2.13;;;;;;;9.96;83.53;98497.28;5014688;28;20110;-77
2022/01/04 10:56:31;;;;;;;5.18;3.00;;;;;;;9.95;83.41;98495.56;5012583;28;20069;-76
2022/01/04 10:58:58;;;;;;;4.70;3.60;;;;;;;9.96;83.59;98496.44;5009218;28;20135;-77
2022/01/04 11:01:30;;;;;;;4.60;3.10;;;;;;;9.92;83.46;98492.19;5011749;28;20396;-77
2022/01/04 11:03:58;;;;;;;4.45;3.05;;;;;;;9.88;83.83;98489.66;5013674;28;20069;-77
2022/01/04 11:06:27;;;;;;;4.97;3.25;;;;;;;9.86;83.80;98480.94;5013290;28;20060;-76
2022/01/04 11:08:53;;;;;;;3.92;2.35;;;;;;;9.88;83.61;98475.63;5013456;28;20057;-76
2022/01/04 11:11:19;;;;;;;6.35;3.25;;;;;;;9.96;83.87;98470.94;5013482;28;20484;-76
2022/01/04 11:13:44;;;;;;;4.80;3.28;;;;;;;10.04;83.12;98468.88;5013500;28;20040;-76
2022/01/04 11:16:10;;;;;;;3.58;2.60;;;;;;;10.10;82.90;98459.88;5012749;28;20038;-76
2022/01/04 11:18:40;;;;;;;6.03;3.83;;;;;;;10.09;83.36;98453.75;5013195;28;20038;-77
2022/01/04 11:21:11;;;;;;;5.95;3.05;;;;;;;10.18;82.70;98446.41;5013573;28;20041;-76
2022/01/04 11:23:37;;;;;;;6.07;3.25;;;;;;;10.15;82.91;98454.44;5013531;28;20504;-76
2022/01/04 11:26:02;;;;;;;7.07;2.80;;;;;;;10.19;82.71;98451.66;5020327;28;20065;-76
2022/01/04 11:28:28;;;;;;;4.35;3.13;;;;;;;10.18;82.35;98446.41;5013486;28;20038;-77
2022/01/04 11:31:12;;;;;;;4.53;2.85;;;;;;;10.14;82.07;98437.78;5019926;28;20034;-76
2022/01/04 11:34:06;;;;;;;4.07;2.75;;;;;;;10.12;82.49;98436.13;5012975;28;20044;-77
2022/01/04 11:36:51;;;;;;;5.45;3.08;;;;;;;10.08;81.54;98441.47;5010314;28;20141;-76
2022/01/04 11:39:39;;;;;;;5.63;2.95;;;;;;;10.04;81.50;98433.75;5006251;28;20025;-77
2022/01/04 11:42:07;;;;;;;6.57;3.70;;;;;;;10.01;82.08;98441.78;5009758;28;20029;-77
2022/01/04 11:44:34;;;;;;;5.40;3.55;;;;;;;9.97;82.32;98446.28;5008594;28;20040;-77
2022/01/04 11:47:05;;;;;;;5.65;4.00;;;;;;;9.99;82.58;98436.56;5007216;28;20037;-76